Edward F Knapp State Airport Barre, Montpelier US
ICAO: KMPV
IATA: MPV
Category: Medium
Scheduled Services: No

Elevation: 1166 ft
TransAlt. 18000 ft.

Airport Communications:
ASOS:132.675
BOSTON CNTR:135.7
BURLINGTON RDO:122.6
CTAF/UNICOM:122.8

KMPV Zoom In..

Runways:

(A) RW 05 length 4022 ft width 100 ft
---- / hdg 48

(B) RW 17 length 5002 ft width 100 ft
ILS 108.70 / hdg 168

(C) RW 23 length 4022 ft width 100 ft
---- / hdg 228

(D) RW 35 length 5002 ft width 100 ft
---- / hdg 348

Location; KMPV
Day. 20 / Time. 02.51 Zulu
* Altimeter: 30.17
* Temperature: 14° c. 57.2°f.
* Wind from: 000° Speed 00 kn.
Dewpoint: 12° c.
Visibility: 10 Statute Miles.
Clouds: Clear (automated report).

KMPV 200251Z AUTO 00000KT 10SM CLR 14/12 A3017 RMK AO2 SLP217 T01440122 51018


Wind - Calm.

 
 
jpsmedia.com for Web Design worldairports.se 2018   terms of use